Time;durP1;ratioP1;P1;durP2;ratioP2;P2;SDS_P1;SDS_P2;PMS_P1;PMS_P2;Temp;Humidity;BMP_temperature;BMP_pressure;BME280_temperature;BME280_humidity;BME280_pressure;Samples;Min_cycle;Max_cycle;Signal;HPM_P1;HPM_P2
2022/06/16 00:00:16;;;;;;;6.27;5.67;;;27.40;41.00;;;;;;5013891;28;20448;-47
2022/06/16 00:02:45;;;;;;;6.97;6.27;;;27.40;40.80;;;;;;5020761;28;20831;-46
2022/06/16 00:05:12;;;;;;;7.20;6.60;;;27.40;40.90;;;;;;5021278;28;20901;-48
2022/06/16 00:07:39;;;;;;;8.97;6.80;;;27.50;41.00;;;;;;5025493;28;20442;-44
2022/06/16 00:10:06;;;;;;;8.70;7.90;;;27.50;40.90;;;;;;5026034;28;20436;-47
2022/06/16 00:12:32;;;;;;;8.60;7.27;;;27.50;41.00;;;;;;5017381;28;20506;-47
2022/06/16 00:14:58;;;;;;;7.63;6.80;;;27.50;41.00;;;;;;5026128;28;20448;-45
2022/06/16 00:17:25;;;;;;;7.60;6.77;;;27.40;41.20;;;;;;5025430;28;20446;-47
2022/06/16 00:19:51;;;;;;;6.87;6.37;;;27.40;41.30;;;;;;5023274;28;20440;-45
2022/06/16 00:22:17;;;;;;;7.80;6.47;;;27.40;41.30;;;;;;5021416;28;20789;-48
2022/06/16 00:24:42;;;;;;;6.00;5.40;;;27.40;41.30;;;;;;5024972;28;20437;-47
2022/06/16 00:27:08;;;;;;;6.87;6.20;;;27.40;41.40;;;;;;5024889;28;20194;-47
2022/06/16 00:29:34;;;;;;;9.70;6.50;;;27.30;41.40;;;;;;5026879;28;20213;-45
2022/06/16 00:32:00;;;;;;;8.53;6.70;;;27.40;41.60;;;;;;5024138;28;20268;-46
2022/06/16 00:34:26;;;;;;;8.20;7.27;;;27.40;41.50;;;;;;5028111;28;20463;-46
2022/06/16 00:36:52;;;;;;;7.83;6.40;;;27.40;41.50;;;;;;5023409;28;20445;-48
2022/06/16 00:39:18;;;;;;;8.50;6.57;;;27.40;41.60;;;;;;5017354;28;20283;-45
2022/06/16 00:41:44;;;;;;;6.77;6.07;;;27.30;41.80;;;;;;5025978;28;20251;-47
2022/06/16 00:44:21;;;;;;;9.53;7.30;;;27.30;41.90;;;;;;5025260;28;20227;-44
2022/06/16 00:46:47;;;;;;;8.37;6.47;;;27.30;41.90;;;;;;5026663;28;20545;-44
2022/06/16 00:49:14;;;;;;;10.93;6.40;;;27.20;41.90;;;;;;5008580;28;20447;-44
2022/06/16 00:51:49;;;;;;;7.13;6.43;;;27.20;42.30;;;;;;5023476;28;20255;-44
2022/06/16 00:54:41;;;;;;;7.87;7.07;;;27.10;42.70;;;;;;5027293;28;20452;-47
2022/06/16 00:57:14;;;;;;;7.47;6.63;;;27.00;42.80;;;;;;5024797;28;20539;-46
2022/06/16 00:59:40;;;;;;;7.30;6.20;;;26.90;42.90;;;;;;5029754;28;20466;-47
2022/06/16 01:02:08;;;;;;;7.40;6.50;;;26.90;42.90;;;;;;5022839;28;20820;-46
2022/06/16 01:04:53;;;;;;;9.13;6.70;;;26.90;42.90;;;;;;5023627;28;20578;-44
2022/06/16 01:07:35;;;;;;;8.00;5.90;;;26.90;43.20;;;;;;5022281;28;20931;-46
2022/06/16 01:10:01;;;;;;;6.07;5.50;;;26.90;43.10;;;;;;5027854;28;20455;-46
2022/06/16 01:15:37;;;;;;;6.40;5.80;;;26.80;43.40;;;;;;5024820;28;20578;-44
2022/06/16 01:18:14;;;;;;;6.17;5.63;;;26.70;43.50;;;;;;5022161;28;20444;-47
2022/06/16 01:20:48;;;;;;;6.00;5.50;;;26.70;43.50;;;;;;5017737;28;20456;-44
2022/06/16 01:23:44;;;;;;;6.33;5.70;;;26.60;43.80;;;;;;5025252;28;20436;-47
2022/06/16 01:26:34;;;;;;;5.93;5.40;;;26.60;44.00;;;;;;5020087;28;20456;-43
2022/06/16 01:29:05;;;;;;;5.80;5.30;;;26.50;43.90;;;;;;5027151;28;20463;-44
2022/06/16 01:31:52;;;;;;;5.60;5.20;;;26.60;43.80;;;;;;5017059;28;20443;-43
2022/06/16 01:34:39;;;;;;;5.43;5.03;;;26.60;43.80;;;;;;5021911;28;20451;-43
2022/06/16 01:37:28;;;;;;;6.20;4.83;;;26.50;44.00;;;;;;5018286;28;20436;-43
2022/06/16 01:40:04;;;;;;;5.97;5.47;;;26.40;44.10;;;;;;5021073;28;20444;-45
2022/06/16 01:42:52;;;;;;;5.37;4.90;;;26.40;44.10;;;;;;5021200;28;20868;-45
2022/06/16 01:45:28;;;;;;;5.80;5.30;;;26.20;44.40;;;;;;5024123;28;20954;-43
2022/06/16 01:47:56;;;;;;;6.30;5.70;;;26.00;45.10;;;;;;5023153;28;20451;-44
2022/06/16 01:50:33;;;;;;;5.70;5.30;;;25.90;45.40;;;;;;5025128;28;20985;-44
2022/06/16 01:53:12;;;;;;;6.00;5.40;;;25.80;45.50;;;;;;5023850;28;20487;-44
2022/06/16 01:55:50;;;;;;;6.40;5.80;;;25.80;45.50;;;;;;5027102;28;20483;-44
2022/06/16 01:58:34;;;;;;;5.70;5.20;;;25.80;45.40;;;;;;5023621;28;20443;-43
2022/06/16 02:01:05;;;;;;;4.83;4.53;;;26.00;45.10;;;;;;5019026;28;20463;-44
2022/06/16 02:03:36;;;;;;;5.63;5.13;;;26.00;44.90;;;;;;5022324;28;20518;-43
2022/06/16 02:06:10;;;;;;;5.57;5.10;;;26.10;44.70;;;;;;5025894;28;20510;-42
2022/06/16 02:08:39;;;;;;;6.23;4.90;;;26.00;44.80;;;;;;5024179;28;20432;-44
2022/06/16 02:11:15;;;;;;;5.27;4.70;;;26.00;44.70;;;;;;5019795;28;20463;-44
2022/06/16 02:13:49;;;;;;;7.40;5.20;;;26.10;44.70;;;;;;5015097;28;20491;-43
2022/06/16 02:16:30;;;;;;;6.00;5.13;;;26.10;44.60;;;;;;5019103;28;20489;-44
2022/06/16 02:18:57;;;;;;;5.60;5.10;;;26.20;44.50;;;;;;5023243;28;20456;-43
2022/06/16 02:21:40;;;;;;;5.67;5.20;;;26.20;44.30;;;;;;5025353;28;20502;-44
2022/06/16 02:24:09;;;;;;;5.67;5.20;;;26.20;44.20;;;;;;5022017;28;20574;-43
2022/06/16 02:26:36;;;;;;;5.87;4.93;;;26.20;44.30;;;;;;5025298;28;20518;-43
2022/06/16 02:29:19;;;;;;;7.40;5.37;;;26.20;44.20;;;;;;5025572;28;20531;-43
2022/06/16 02:31:50;;;;;;;5.57;5.03;;;26.20;44.40;;;;;;5022560;28;20432;-44
2022/06/16 02:34:34;;;;;;;6.23;5.43;;;26.20;45.10;;;;;;5022203;28;20455;-48
2022/06/16 02:37:27;;;;;;;4.97;4.57;;;26.10;44.60;;;;;;5019991;28;20812;-44
2022/06/16 02:40:13;;;;;;;5.33;4.93;;;25.90;45.30;;;;;;5020864;28;20476;-44
2022/06/16 02:42:48;;;;;;;6.43;5.70;;;25.50;46.20;;;;;;5026393;28;20448;-43
2022/06/16 02:45:46;;;;;;;6.43;5.90;;;25.50;46.20;;;;;;5024749;28;20439;-44
2022/06/16 02:48:26;;;;;;;5.60;5.10;;;25.60;46.10;;;;;;5018688;28;20454;-44
2022/06/16 02:51:09;;;;;;;5.60;5.10;;;25.70;46.00;;;;;;5016976;28;20440;-43
2022/06/16 02:54:13;;;;;;;5.80;5.30;;;25.70;46.00;;;;;;5022901;28;20483;-44
2022/06/16 02:56:59;;;;;;;5.93;5.43;;;25.50;47.00;;;;;;5019178;28;20487;-48
2022/06/16 02:59:37;;;;;;;6.10;5.50;;;25.40;46.80;;;;;;5024918;28;20537;-44
2022/06/16 03:02:08;;;;;;;5.90;5.30;;;25.40;46.60;;;;;;5020672;28;20450;-46
2022/06/16 03:04:40;;;;;;;5.70;5.20;;;25.40;46.70;;;;;;5029401;28;21025;-44
2022/06/16 03:07:09;;;;;;;6.13;5.63;;;25.40;46.60;;;;;;5025844;28;20454;-44
2022/06/16 03:09:37;;;;;;;5.63;5.23;;;25.40;46.70;;;;;;5031678;28;20875;-48
2022/06/16 03:12:03;;;;;;;7.17;6.53;;;25.40;46.60;;;;;;5029826;28;20491;-44
2022/06/16 03:14:29;;;;;;;5.67;5.17;;;25.40;46.70;;;;;;5029534;28;20446;-48
2022/06/16 03:16:54;;;;;;;6.00;5.50;;;25.40;47.30;;;;;;5028876;28;20428;-44
2022/06/16 03:19:22;;;;;;;5.77;5.37;;;25.10;47.20;;;;;;5029129;28;20193;-44
2022/06/16 03:21:48;;;;;;;6.67;6.07;;;25.00;47.50;;;;;;5030635;28;20216;-44
2022/06/16 03:24:14;;;;;;;5.63;5.17;;;24.80;47.90;;;;;;5029314;28;20471;-44
2022/06/16 03:26:40;;;;;;;6.03;5.50;;;24.60;48.30;;;;;;5028838;28;20460;-46
2022/06/16 03:29:05;;;;;;;5.77;5.30;;;24.50;48.40;;;;;;5027157;28;20197;-43
2022/06/16 03:31:31;;;;;;;6.20;5.70;;;24.40;48.70;;;;;;5028875;28;20205;-46
2022/06/16 03:33:57;;;;;;;6.77;6.17;;;24.00;49.60;;;;;;5025186;28;20557;-46
2022/06/16 03:36:22;;;;;;;5.87;5.13;;;24.00;50.60;;;;;;5017694;28;20514;-45
2022/06/16 03:38:48;;;;;;;5.20;4.90;;;24.10;49.60;;;;;;5029990;28;20197;-47
2022/06/16 03:41:14;;;;;;;6.83;5.70;;;24.20;49.20;;;;;;5026706;28;20669;-48
2022/06/16 03:43:40;;;;;;;6.43;5.83;;;24.30;49.00;;;;;;5027707;28;20645;-48
2022/06/16 03:46:06;;;;;;;6.33;5.73;;;24.40;48.80;;;;;;5027800;28;20247;-46
2022/06/16 03:48:32;;;;;;;5.80;5.40;;;24.50;48.30;;;;;;5018238;28;20435;-47
2022/06/16 03:50:57;;;;;;;5.97;5.47;;;24.60;48.20;;;;;;5012782;28;20194;-44
2022/06/16 03:53:23;;;;;;;6.07;5.50;;;24.70;48.00;;;;;;5016746;28;20484;-45
2022/06/16 03:55:49;;;;;;;5.93;5.27;;;24.70;48.00;;;;;;5015166;28;20221;-45
2022/06/16 03:58:15;;;;;;;6.73;6.00;;;24.00;49.20;;;;;;5030442;28;20518;-45
2022/06/16 04:00:42;;;;;;;5.87;5.30;;;23.60;50.40;;;;;;5025454;28;20591;-44
2022/06/16 04:05:53;;;;;;;6.03;5.47;;;23.20;51.60;;;;;;5023840;28;20451;-45
2022/06/16 04:08:20;;;;;;;6.90;5.67;;;23.30;51.50;;;;;;5021796;28;20440;-47
2022/06/16 04:10:46;;;;;;;8.03;5.87;;;23.40;51.10;;;;;;5026069;28;20533;-47
2022/06/16 04:13:13;;;;;;;7.50;5.20;;;23.70;50.80;;;;;;5025398;28;20521;-44
2022/06/16 04:15:39;;;;;;;5.10;4.70;;;23.90;50.20;;;;;;5025946;28;20806;-43
2022/06/16 04:18:05;;;;;;;5.33;4.93;;;24.10;49.70;;;;;;5023882;28;20447;-44
2022/06/16 04:20:31;;;;;;;8.30;5.63;;;24.30;49.30;;;;;;5022306;28;20457;-45
2022/06/16 04:22:57;;;;;;;6.13;5.63;;;24.30;49.20;;;;;;5023649;28;20768;-44
2022/06/16 04:25:30;;;;;;;5.90;5.30;;;24.30;49.10;;;;;;5024710;28;20440;-45
2022/06/16 04:27:59;;;;;;;5.93;5.43;;;24.50;49.10;;;;;;5027199;28;20232;-44
2022/06/16 04:30:25;;;;;;;6.13;5.60;;;24.60;48.90;;;;;;5024552;28;20534;-46
2022/06/16 04:32:51;;;;;;;6.60;5.93;;;24.70;48.70;;;;;;5023077;28;20901;-44
2022/06/16 04:35:16;;;;;;;6.23;5.70;;;24.80;48.50;;;;;;5029194;28;20193;-45
2022/06/16 04:37:42;;;;;;;5.27;4.77;;;24.90;48.40;;;;;;5025812;28;20223;-47
2022/06/16 04:40:09;;;;;;;5.63;5.03;;;25.00;48.10;;;;;;5024062;28;20202;-44
2022/06/16 04:42:35;;;;;;;5.30;4.90;;;25.10;48.00;;;;;;5027545;28;20205;-45
2022/06/16 04:45:01;;;;;;;6.37;4.93;;;25.10;47.80;;;;;;5024317;28;20471;-46
2022/06/16 04:47:27;;;;;;;5.80;5.30;;;25.20;47.90;;;;;;5022450;28;20232;-44
2022/06/16 04:49:52;;;;;;;5.90;5.50;;;25.20;47.90;;;;;;5023996;28;20498;-43
2022/06/16 04:52:19;;;;;;;5.80;5.30;;;24.70;49.00;;;;;;5027321;28;20235;-44
2022/06/16 04:54:49;;;;;;;5.50;5.00;;;24.80;48.90;;;;;;5019551;28;20229;-43
2022/06/16 04:57:15;;;;;;;6.70;4.97;;;25.00;48.50;;;;;;5015146;28;20445;-44
2022/06/16 04:59:42;;;;;;;6.00;5.60;;;25.20;48.10;;;;;;5018742;28;20444;-44
2022/06/16 05:02:08;;;;;;;6.00;5.60;;;24.80;49.10;;;;;;5027021;28;20189;-45
2022/06/16 05:04:35;;;;;;;7.30;5.80;;;24.80;49.10;;;;;;5022917;28;20802;-43
2022/06/16 05:07:01;;;;;;;7.60;5.97;;;25.00;48.60;;;;;;5025384;28;20634;-45
2022/06/16 05:09:28;;;;;;;6.37;5.87;;;25.20;48.20;;;;;;5025435;28;20455;-44
2022/06/16 05:11:53;;;;;;;5.67;5.13;;;25.30;48.00;;;;;;5027759;28;20583;-44
2022/06/16 05:14:20;;;;;;;6.50;6.00;;;25.50;47.80;;;;;;5021840;28;20528;-46
2022/06/16 05:16:47;;;;;;;6.23;5.70;;;25.60;47.40;;;;;;5021221;28;20201;-43
2022/06/16 05:19:13;;;;;;;5.80;5.20;;;25.60;47.10;;;;;;5025795;28;20436;-44
2022/06/16 05:21:39;;;;;;;6.63;5.30;;;25.70;47.20;;;;;;5024846;28;20436;-44
2022/06/16 05:24:05;;;;;;;6.07;5.33;;;25.80;46.90;;;;;;5025787;28;20193;-45
2022/06/16 05:26:30;;;;;;;7.80;5.97;;;25.90;46.70;;;;;;5017939;28;20281;-43
2022/06/16 05:28:56;;;;;;;6.30;5.47;;;25.90;46.50;;;;;;5022978;28;20204;-45
2022/06/16 05:31:23;;;;;;;7.87;4.93;;;25.70;47.10;;;;;;5018526;28;20712;-44
2022/06/16 05:33:49;;;;;;;5.63;5.13;;;25.80;46.90;;;;;;5021494;28;20229;-43
2022/06/16 05:36:16;;;;;;;5.23;4.83;;;25.90;46.90;;;;;;5025560;28;20456;-43
2022/06/16 05:38:42;;;;;;;6.10;5.10;;;26.10;46.40;;;;;;5028455;28;20543;-43
2022/06/16 05:41:14;;;;;;;5.53;5.03;;;26.30;46.10;;;;;;5024859;28;20522;-43
2022/06/16 05:43:40;;;;;;;5.30;4.90;;;26.40;45.80;;;;;;5024055;28;20645;-43
2022/06/16 05:46:12;;;;;;;5.57;5.17;;;26.50;46.20;;;;;;5027007;28;20498;-44
2022/06/16 05:48:38;;;;;;;5.90;5.40;;;26.60;45.50;;;;;;5027930;28;20531;-45
2022/06/16 05:51:06;;;;;;;6.00;5.50;;;26.70;45.40;;;;;;5027424;28;20551;-44
2022/06/16 05:53:32;;;;;;;5.10;4.70;;;26.80;45.30;;;;;;5021260;28;20233;-44
2022/06/16 05:55:58;;;;;;;5.93;5.43;;;26.90;45.20;;;;;;5026410;28;20472;-44
2022/06/16 05:58:23;;;;;;;5.23;4.83;;;26.90;45.20;;;;;;5024473;28;20436;-44
2022/06/16 06:00:49;;;;;;;6.63;5.33;;;27.00;45.10;;;;;;5022815;28;20194;-44
2022/06/16 06:03:15;;;;;;;5.73;5.33;;;27.10;45.00;;;;;;5022667;28;20185;-43
2022/06/16 06:05:40;;;;;;;5.63;5.03;;;27.10;45.40;;;;;;5023008;28;20196;-44
2022/06/16 06:16:37;;;;;;;5.07;4.60;;;27.00;44.60;;;;;;5026465;28;20497;-44
2022/06/16 06:19:23;;;;;;;5.47;5.07;;;27.00;44.50;;;;;;5025307;28;20498;-44
2022/06/16 06:21:58;;;;;;;6.50;5.80;;;27.00;44.30;;;;;;5021472;28;20487;-44
2022/06/16 06:24:25;;;;;;;5.53;5.00;;;27.00;44.20;;;;;;5023168;28;20489;-46
2022/06/16 06:26:52;;;;;;;6.97;5.40;;;26.90;44.20;;;;;;5022215;28;20440;-45
2022/06/16 06:29:18;;;;;;;6.00;5.40;;;26.70;45.20;;;;;;5024399;28;20435;-44
2022/06/16 06:31:43;;;;;;;6.47;5.73;;;26.40;45.80;;;;;;5019002;28;20998;-44
2022/06/16 06:34:09;;;;;;;5.37;4.97;;;26.60;45.60;;;;;;5027744;28;20225;-43
2022/06/16 06:36:35;;;;;;;5.57;5.13;;;26.60;44.40;;;;;;5028354;28;20215;-44
2022/06/16 06:39:00;;;;;;;5.90;5.40;;;26.60;44.20;;;;;;5029873;28;20195;-44
2022/06/16 06:41:26;;;;;;;5.80;5.40;;;26.60;44.70;;;;;;5031226;28;20196;-45
2022/06/16 06:43:52;;;;;;;5.40;4.90;;;26.80;44.30;;;;;;5031572;28;20617;-44
2022/06/16 06:46:17;;;;;;;5.77;5.27;;;26.70;44.50;;;;;;5031620;28;20197;-45
2022/06/16 06:48:44;;;;;;;6.03;5.50;;;26.60;44.70;;;;;;5031920;28;20336;-44
2022/06/16 06:51:10;;;;;;;5.07;4.57;;;26.80;44.00;;;;;;5031049;28;20219;-43
2022/06/16 06:53:36;;;;;;;4.97;4.57;;;27.00;43.50;;;;;;5029428;28;20503;-44
2022/06/16 06:56:02;;;;;;;6.07;5.37;;;27.20;43.20;;;;;;5031486;28;20472;-45
2022/06/16 06:58:32;;;;;;;5.30;4.90;;;27.40;43.00;;;;;;5030438;28;20196;-44
2022/06/16 07:01:01;;;;;;;5.73;5.23;;;27.60;42.70;;;;;;5029366;28;20477;-44
2022/06/16 07:03:28;;;;;;;5.30;4.90;;;27.70;41.90;;;;;;5031437;28;20510;-44
2022/06/16 07:05:54;;;;;;;5.30;4.90;;;27.80;41.80;;;;;;5027765;28;20447;-45
2022/06/16 07:08:21;;;;;;;5.03;4.53;;;27.90;41.90;;;;;;5031832;28;20458;-48
2022/06/16 07:10:46;;;;;;;4.70;4.40;;;27.90;41.70;;;;;;5028818;28;20476;-47
2022/06/16 07:13:12;;;;;;;6.87;4.80;;;28.00;42.30;;;;;;5027174;28;20550;-47
2022/06/16 07:15:39;;;;;;;5.70;5.20;;;28.00;42.90;;;;;;5029530;28;20200;-44
2022/06/16 07:18:06;;;;;;;6.33;5.73;;;28.10;42.80;;;;;;5031285;28;20446;-46
2022/06/16 07:20:33;;;;;;;5.50;5.03;;;28.10;40.90;;;;;;5031080;28;20457;-47
2022/06/16 07:22:58;;;;;;;5.40;4.90;;;28.20;40.50;;;;;;5031225;28;20439;-45
2022/06/16 07:25:24;;;;;;;5.90;5.40;;;28.30;40.60;;;;;;5028765;28;21032;-46
2022/06/16 07:27:53;;;;;;;5.30;4.90;;;28.30;40.80;;;;;;5030737;28;20193;-46
2022/06/16 07:30:19;;;;;;;7.73;4.77;;;28.40;41.00;;;;;;5014640;28;20189;-47
2022/06/16 07:32:46;;;;;;;5.70;5.13;;;28.50;41.70;;;;;;5028454;28;20487;-44
2022/06/16 07:35:15;;;;;;;6.40;5.33;;;28.60;41.30;;;;;;5031315;28;20451;-47
2022/06/16 07:37:41;;;;;;;6.70;5.40;;;28.70;40.70;;;;;;5031029;28;20454;-46
2022/06/16 07:40:08;;;;;;;6.47;5.63;;;28.70;40.20;;;;;;5031891;28;20444;-48
2022/06/16 07:42:34;;;;;;;7.97;5.40;;;28.80;40.30;;;;;;5030805;28;20277;-44
2022/06/16 07:45:01;;;;;;;6.20;5.70;;;28.80;40.10;;;;;;5032204;28;20847;-49
2022/06/16 07:47:27;;;;;;;6.80;5.10;;;28.80;40.20;;;;;;5030116;28;20447;-44
2022/06/16 07:49:54;;;;;;;6.60;6.00;;;28.80;40.00;;;;;;5013227;28;20455;-46
2022/06/16 07:52:19;;;;;;;7.67;5.60;;;28.80;39.30;;;;;;5031664;28;20986;-46
2022/06/16 07:54:45;;;;;;;6.10;5.60;;;28.60;39.40;;;;;;5030085;28;20479;-45
2022/06/16 07:57:11;;;;;;;6.00;5.50;;;28.60;39.60;;;;;;5029411;28;20205;-44
2022/06/16 07:59:37;;;;;;;5.90;5.40;;;28.60;39.60;;;;;;5029214;28;20447;-46
2022/06/16 08:02:03;;;;;;;5.80;5.10;;;28.60;39.90;;;;;;5028974;28;20189;-47
2022/06/16 08:04:29;;;;;;;5.83;5.40;;;28.60;40.10;;;;;;5031750;28;20194;-44
2022/06/16 08:07:00;;;;;;;10.03;5.17;;;28.70;40.30;;;;;;5030681;28;20450;-45
2022/06/16 08:09:27;;;;;;;5.60;5.10;;;28.70;39.80;;;;;;5030590;28;20463;-45
2022/06/16 08:12:08;;;;;;;5.00;4.60;;;28.80;39.40;;;;;;5020576;28;20436;-47
2022/06/16 08:14:37;;;;;;;7.30;4.50;;;29.00;39.30;;;;;;5030334;28;20966;-43
2022/06/16 08:17:10;;;;;;;6.13;5.63;;;29.10;39.70;;;;;;5028502;28;20436;-45
2022/06/16 08:19:37;;;;;;;5.80;4.63;;;29.30;39.70;;;;;;5023891;28;20447;-44
2022/06/16 08:22:03;;;;;;;5.07;4.67;;;29.40;39.60;;;;;;5029525;28;20479;-46
2022/06/16 08:24:29;;;;;;;5.10;4.73;;;29.50;39.10;;;;;;5030406;28;20545;-45
2022/06/16 08:26:56;;;;;;;6.00;5.20;;;29.70;39.10;;;;;;5017264;28;20448;-45
2022/06/16 08:29:22;;;;;;;5.40;4.90;;;29.70;38.20;;;;;;5030522;28;20201;-46
2022/06/16 08:31:48;;;;;;;9.43;5.30;;;29.80;38.50;;;;;;5022164;28;20810;-44
2022/06/16 08:34:13;;;;;;;5.67;5.27;;;29.90;38.50;;;;;;5030956;28;20252;-45
2022/06/16 08:36:40;;;;;;;5.83;5.27;;;30.10;38.40;;;;;;5029388;28;20207;-45
2022/06/16 08:39:06;;;;;;;6.80;5.00;;;30.20;38.60;;;;;;5028999;28;20204;-44
2022/06/16 08:41:45;;;;;;;6.10;5.70;;;30.30;38.00;;;;;;5024934;28;20471;-44
2022/06/16 08:44:24;;;;;;;5.70;5.10;;;30.50;37.80;;;;;;5023334;28;20471;-45
2022/06/16 08:47:18;;;;;;;12.20;5.07;;;30.60;37.60;;;;;;5016921;28;20436;-43
2022/06/16 08:50:06;;;;;;;4.40;4.07;;;30.60;36.30;;;;;;5029986;28;20447;-44
2022/06/16 08:52:47;;;;;;;5.00;4.57;;;30.50;35.30;;;;;;5028656;28;20494;-44
2022/06/16 08:55:20;;;;;;;4.77;3.97;;;30.60;35.20;;;;;;5027419;28;20522;-43
2022/06/16 08:58:20;;;;;;;5.00;4.60;;;30.60;34.90;;;;;;5027112;28;20436;-45
2022/06/16 09:00:48;;;;;;;5.03;4.47;;;30.50;34.20;;;;;;5025753;28;20456;-44
2022/06/16 09:03:19;;;;;;;5.40;4.90;;;30.30;34.60;;;;;;5023526;28;20479;-44
2022/06/16 09:06:04;;;;;;;5.63;5.20;;;30.30;35.10;;;;;;5021485;28;20506;-43
2022/06/16 09:08:54;;;;;;;6.87;4.70;;;30.40;34.70;;;;;;5027136;28;20515;-44
2022/06/16 09:11:39;;;;;;;6.00;5.00;;;30.60;35.00;;;;;;5027572;28;20456;-44
2022/06/16 09:15:10;;;;;;;10.00;4.50;;;30.50;35.00;;;;;;5028897;28;20491;-44
2022/06/16 09:17:32;;;;;;;10.10;4.73;;;30.60;35.60;;;;;;5013257;28;20482;-44
2022/06/16 09:20:27;;;;;;;4.90;4.47;;;30.60;35.60;;;;;;5022459;28;20436;-47
2022/06/16 09:23:17;;;;;;;4.77;4.37;;;30.40;36.00;;;;;;5018095;28;20510;-44
2022/06/16 09:25:54;;;;;;;5.50;5.10;;;30.70;36.50;;;;;;5025906;28;20452;-43
2022/06/16 09:28:31;;;;;;;5.77;5.17;;;30.90;35.80;;;;;;5022284;28;20452;-44
2022/06/16 09:31:03;;;;;;;6.80;6.13;;;31.00;35.80;;;;;;5023617;28;20571;-45
2022/06/16 09:33:36;;;;;;;6.40;5.80;;;31.00;36.10;;;;;;5020556;28;20567;-44
2022/06/16 09:36:21;;;;;;;5.80;5.30;;;30.90;35.80;;;;;;5025593;28;20959;-45
2022/06/16 09:39:05;;;;;;;6.90;4.90;;;31.10;37.10;;;;;;5015215;28;20508;-46
2022/06/16 09:44:37;;;;;;;6.00;5.50;;;31.60;35.80;;;;;;5023595;28;20506;-46
2022/06/16 09:47:09;;;;;;;5.33;5.03;;;31.90;35.90;;;;;;5019246;28;20459;-45
2022/06/16 09:49:48;;;;;;;6.30;5.90;;;32.10;35.80;;;;;;5025087;28;20542;-45
2022/06/16 09:52:26;;;;;;;5.30;4.90;;;32.30;35.40;;;;;;5012777;28;20487;-44
2022/06/16 09:55:00;;;;;;;6.50;6.00;;;32.40;35.20;;;;;;5027407;28;20481;-47
2022/06/16 09:57:33;;;;;;;6.77;6.30;;;32.40;35.00;;;;;;5021866;28;20455;-49
2022/06/16 10:00:14;;;;;;;6.03;5.30;;;32.60;35.20;;;;;;5019691;28;20516;-49
2022/06/16 10:02:47;;;;;;;10.73;5.90;;;32.70;35.30;;;;;;5023645;28;20460;-48
2022/06/16 10:05:37;;;;;;;6.87;6.17;;;32.70;35.20;;;;;;5024351;28;21595;-48
2022/06/16 10:08:35;;;;;;;7.47;5.73;;;32.80;35.20;;;;;;5021489;28;20451;-46
2022/06/16 10:11:10;;;;;;;7.90;6.00;;;32.90;35.00;;;;;;5004250;28;20444;-48
2022/06/16 10:13:58;;;;;;;6.10;5.60;;;33.00;34.90;;;;;;5023540;28;20487;-47
2022/06/16 10:16:35;;;;;;;7.73;6.93;;;33.00;34.90;;;;;;5020734;28;20479;-47
2022/06/16 10:19:01;;;;;;;7.50;6.70;;;32.90;34.90;;;;;;5019797;28;21110;-45
2022/06/16 10:21:26;;;;;;;7.40;6.60;;;33.00;34.50;;;;;;5022666;28;20443;-49
2022/06/16 10:23:58;;;;;;;5.97;5.57;;;33.20;34.40;;;;;;5029177;28;20213;-49
2022/06/16 10:26:23;;;;;;;6.30;5.80;;;33.20;34.20;;;;;;5021267;28;20211;-49
2022/06/16 10:29:22;;;;;;;6.80;5.43;;;33.40;33.80;;;;;;5028029;28;20519;-50
2022/06/16 10:31:49;;;;;;;6.20;5.60;;;33.40;33.70;;;;;;5023696;28;20217;-47
2022/06/16 10:34:20;;;;;;;5.43;5.03;;;33.60;33.50;;;;;;5028052;28;20456;-47
2022/06/16 10:37:07;;;;;;;6.70;5.27;;;33.70;33.70;;;;;;5025370;28;20951;-50
2022/06/16 10:39:40;;;;;;;7.60;5.10;;;33.90;31.90;;;;;;5027371;28;20489;-48
2022/06/16 10:42:27;;;;;;;5.73;4.50;;;34.00;31.80;;;;;;5021132;28;20452;-50
2022/06/16 10:45:02;;;;;;;6.43;4.70;;;34.20;32.50;;;;;;5019244;28;20822;-46
2022/06/16 10:48:01;;;;;;;5.57;4.90;;;34.40;32.60;;;;;;5019771;28;20440;-47
2022/06/16 10:50:34;;;;;;;5.30;5.00;;;34.50;32.70;;;;;;5024638;28;20452;-48
2022/06/16 10:53:04;;;;;;;6.40;5.30;;;34.80;32.30;;;;;;5025033;28;20479;-48
2022/06/16 10:55:41;;;;;;;5.53;5.07;;;35.00;31.80;;;;;;5027821;28;20490;-48
2022/06/16 10:58:15;;;;;;;6.37;5.77;;;35.10;32.20;;;;;;5026146;28;20452;-49
2022/06/16 11:00:41;;;;;;;6.10;5.40;;;35.20;32.30;;;;;;5022624;28;20455;-46
2022/06/16 11:03:10;;;;;;;5.03;4.73;;;35.30;31.30;;;;;;5021579;28;20439;-45
2022/06/16 11:05:55;;;;;;;8.47;5.47;;;35.50;31.40;;;;;;5026179;28;20444;-46
2022/06/16 11:08:23;;;;;;;6.07;5.20;;;35.60;30.40;;;;;;5023456;28;20471;-48
2022/06/16 11:10:58;;;;;;;5.20;4.70;;;35.60;30.40;;;;;;5012282;28;20444;-48
2022/06/16 11:13:37;;;;;;;6.83;5.20;;;35.70;30.70;;;;;;5026262;28;20522;-48
2022/06/16 11:16:23;;;;;;;5.60;5.20;;;35.60;31.00;;;;;;5017880;28;20443;-47
2022/06/16 11:18:53;;;;;;;5.47;5.03;;;35.70;30.00;;;;;;5025274;28;20444;-49
2022/06/16 11:21:29;;;;;;;5.20;4.80;;;35.60;30.00;;;;;;5026195;28;20432;-47
2022/06/16 11:23:59;;;;;;;8.30;4.30;;;35.50;29.90;;;;;;5015164;28;20451;-45
2022/06/16 11:26:30;;;;;;;5.27;4.87;;;35.60;30.10;;;;;;5025355;28;21040;-48
2022/06/16 11:29:31;;;;;;;4.90;4.37;;;35.70;29.60;;;;;;5017234;28;20448;-49
2022/06/16 11:32:19;;;;;;;5.60;4.60;;;35.60;28.90;;;;;;5026257;28;20950;-47
2022/06/16 11:34:47;;;;;;;4.90;4.40;;;35.60;29.50;;;;;;5008591;28;20460;-46
2022/06/16 11:37:18;;;;;;;5.87;4.53;;;35.60;29.30;;;;;;5030495;28;20440;-47
2022/06/16 11:40:01;;;;;;;4.40;4.00;;;35.70;29.10;;;;;;5029375;28;20479;-46
2022/06/16 11:42:58;;;;;;;4.93;4.23;;;35.60;29.10;;;;;;5030968;28;20451;-45
2022/06/16 11:45:29;;;;;;;6.40;4.40;;;35.30;29.30;;;;;;5019783;28;20444;-48
2022/06/16 11:48:27;;;;;;;7.37;5.00;;;35.30;30.10;;;;;;5028175;28;20452;-45
2022/06/16 11:51:04;;;;;;;6.40;4.40;;;35.30;29.40;;;;;;5031172;28;20448;-45
2022/06/16 11:53:51;;;;;;;6.50;4.00;;;35.10;29.80;;;;;;5028183;28;20482;-47
2022/06/16 11:56:42;;;;;;;4.77;4.37;;;35.10;29.70;;;;;;5021882;28;20491;-46
2022/06/16 11:59:20;;;;;;;4.90;4.50;;;35.20;30.00;;;;;;5027861;28;20448;-45
2022/06/16 12:01:53;;;;;;;4.53;4.13;;;35.20;29.80;;;;;;5023743;28;20451;-44
2022/06/16 12:04:35;;;;;;;4.47;3.63;;;35.50;29.50;;;;;;5023575;28;20455;-46
2022/06/16 12:07:24;;;;;;;4.43;4.10;;;35.70;28.80;;;;;;5024285;28;20451;-45
2022/06/16 12:10:14;;;;;;;7.63;4.30;;;35.90;29.10;;;;;;5028388;28;20479;-45
2022/06/16 12:13:03;;;;;;;4.40;4.00;;;35.60;28.40;;;;;;5023550;28;20895;-44
2022/06/16 12:15:38;;;;;;;4.60;4.20;;;35.70;28.50;;;;;;5021062;28;20456;-44
2022/06/16 12:18:19;;;;;;;4.83;4.10;;;35.80;28.40;;;;;;5027134;28;20529;-45
2022/06/16 12:21:02;;;;;;;5.13;4.20;;;36.00;28.20;;;;;;5024888;28;20447;-47
2022/06/16 12:23:40;;;;;;;4.20;3.90;;;36.10;28.10;;;;;;5027895;28;20455;-44
2022/06/16 12:26:26;;;;;;;5.23;4.83;;;36.20;28.00;;;;;;5023365;28;20998;-48
2022/06/16 12:29:15;;;;;;;8.00;4.40;;;36.30;28.00;;;;;;5021171;28;20451;-46
2022/06/16 12:32:13;;;;;;;5.33;4.13;;;36.30;27.60;;;;;;5015335;28;21451;-45
2022/06/16 12:35:08;;;;;;;4.73;4.17;;;36.20;27.30;;;;;;5030423;28;20464;-44
2022/06/16 12:37:45;;;;;;;6.37;4.57;;;36.30;27.60;;;;;;5027128;28;20465;-48
2022/06/16 12:40:37;;;;;;;4.30;3.37;;;36.20;27.50;;;;;;5025095;28;20443;-45
2022/06/16 12:43:09;;;;;;;4.13;3.83;;;36.30;27.20;;;;;;5030420;28;21235;-45
2022/06/16 12:45:41;;;;;;;4.03;3.67;;;36.20;27.10;;;;;;5026878;28;20843;-49
2022/06/16 12:48:16;;;;;;;4.00;3.70;;;36.20;27.10;;;;;;5029276;28;20447;-48
2022/06/16 12:50:54;;;;;;;4.30;4.07;;;36.20;26.80;;;;;;5028756;28;20451;-47
2022/06/16 12:53:58;;;;;;;5.10;3.80;;;36.40;26.60;;;;;;5018489;28;20501;-46
2022/06/16 12:56:33;;;;;;;5.10;4.10;;;36.50;26.80;;;;;;4944043;28;20493;-47
2022/06/16 12:59:15;;;;;;;4.53;3.77;;;36.60;26.50;;;;;;4951860;28;20559;-46
2022/06/16 13:01:43;;;;;;;4.53;3.83;;;36.70;26.70;;;;;;4993551;28;20482;-46
2022/06/16 13:04:40;;;;;;;4.40;3.57;;;36.80;25.80;;;;;;5022152;28;20436;-48
2022/06/16 13:07:14;;;;;;;3.77;3.47;;;36.80;26.20;;;;;;5013513;28;20965;-48
2022/06/16 13:09:41;;;;;;;4.17;3.60;;;36.90;26.70;;;;;;5025144;28;20451;-48
2022/06/16 13:12:17;;;;;;;3.77;3.47;;;37.00;26.00;;;;;;5026172;28;20450;-46
2022/06/16 13:14:58;;;;;;;3.57;3.37;;;37.20;25.80;;;;;;5023861;28;20447;-47
2022/06/16 13:17:28;;;;;;;4.43;3.80;;;37.30;25.00;;;;;;5019433;28;20533;-49
2022/06/16 13:20:17;;;;;;;4.33;3.90;;;37.40;25.00;;;;;;5021811;28;20493;-46
2022/06/16 13:22:49;;;;;;;4.53;3.40;;;37.40;24.70;;;;;;5018740;28;20546;-46
2022/06/16 13:25:42;;;;;;;4.80;3.63;;;37.40;25.00;;;;;;5020019;28;20455;-46
2022/06/16 13:28:23;;;;;;;3.97;3.60;;;37.40;24.70;;;;;;5020668;28;21221;-46
2022/06/16 13:31:12;;;;;;;4.13;3.73;;;37.60;25.20;;;;;;5017861;28;20447;-46
2022/06/16 13:33:43;;;;;;;4.43;4.00;;;37.70;25.10;;;;;;5027476;28;20490;-47